sensor_id;sensor_type;location;lat;lon;timestamp;P1;durP1;ratioP1;P2;durP2;ratioP2
8247;SDS011;4164;49.844;8.830;2023-03-21T00:01:57;5.80;;;2.97;;
8247;SDS011;4164;49.844;8.830;2023-03-21T00:04:23;5.50;;;3.27;;
8247;SDS011;4164;49.844;8.830;2023-03-21T00:06:50;8.07;;;3.07;;
8247;SDS011;4164;49.844;8.830;2023-03-21T00:09:16;4.97;;;2.77;;
8247;SDS011;4164;49.844;8.830;2023-03-21T00:11:42;8.13;;;3.30;;
8247;SDS011;4164;49.844;8.830;2023-03-21T00:14:07;4.47;;;3.13;;
8247;SDS011;4164;49.844;8.830;2023-03-21T00:16:38;5.23;;;3.60;;
8247;SDS011;4164;49.844;8.830;2023-03-21T00:19:04;6.90;;;3.00;;
8247;SDS011;4164;49.844;8.830;2023-03-21T00:21:33;7.10;;;3.40;;
8247;SDS011;4164;49.844;8.830;2023-03-21T00:24:02;6.93;;;3.87;;
8247;SDS011;4164;49.844;8.830;2023-03-21T00:26:29;9.90;;;3.50;;
8247;SDS011;4164;49.844;8.830;2023-03-21T00:28:55;5.80;;;3.30;;
8247;SDS011;4164;49.844;8.830;2023-03-21T00:31:21;4.80;;;3.00;;
8247;SDS011;4164;49.844;8.830;2023-03-21T00:33:47;10.47;;;3.00;;
8247;SDS011;4164;49.844;8.830;2023-03-21T00:36:12;4.07;;;2.90;;
8247;SDS011;4164;49.844;8.830;2023-03-21T00:38:38;4.33;;;2.80;;
8247;SDS011;4164;49.844;8.830;2023-03-21T00:41:05;4.67;;;3.00;;
8247;SDS011;4164;49.844;8.830;2023-03-21T00:43:32;8.17;;;3.07;;
8247;SDS011;4164;49.844;8.830;2023-03-21T00:45:57;4.30;;;2.73;;
8247;SDS011;4164;49.844;8.830;2023-03-21T00:48:24;5.27;;;2.87;;
8247;SDS011;4164;49.844;8.830;2023-03-21T00:50:51;6.20;;;3.30;;
8247;SDS011;4164;49.844;8.830;2023-03-21T00:53:18;5.53;;;3.50;;
8247;SDS011;4164;49.844;8.830;2023-03-21T00:55:44;3.47;;;2.80;;
8247;SDS011;4164;49.844;8.830;2023-03-21T00:58:09;8.30;;;3.40;;
8247;SDS011;4164;49.844;8.830;2023-03-21T01:00:35;7.27;;;3.33;;
8247;SDS011;4164;49.844;8.830;2023-03-21T01:03:05;6.83;;;3.37;;
8247;SDS011;4164;49.844;8.830;2023-03-21T01:05:33;10.87;;;4.07;;
8247;SDS011;4164;49.844;8.830;2023-03-21T01:08:20;6.53;;;3.40;;
8247;SDS011;4164;49.844;8.830;2023-03-21T01:10:47;4.57;;;3.20;;
8247;SDS011;4164;49.844;8.830;2023-03-21T01:13:14;7.67;;;3.60;;
8247;SDS011;4164;49.844;8.830;2023-03-21T01:15:46;5.23;;;3.10;;
8247;SDS011;4164;49.844;8.830;2023-03-21T01:18:14;12.27;;;3.73;;
8247;SDS011;4164;49.844;8.830;2023-03-21T01:20:42;4.87;;;3.00;;
8247;SDS011;4164;49.844;8.830;2023-03-21T01:23:10;6.23;;;3.43;;
8247;SDS011;4164;49.844;8.830;2023-03-21T01:25:37;4.80;;;3.27;;
8247;SDS011;4164;49.844;8.830;2023-03-21T01:28:03;5.90;;;3.47;;
8247;SDS011;4164;49.844;8.830;2023-03-21T01:30:29;5.67;;;3.60;;
8247;SDS011;4164;49.844;8.830;2023-03-21T01:32:55;6.00;;;3.73;;
8247;SDS011;4164;49.844;8.830;2023-03-21T01:35:21;7.97;;;3.90;;
8247;SDS011;4164;49.844;8.830;2023-03-21T01:37:47;7.87;;;3.80;;
8247;SDS011;4164;49.844;8.830;2023-03-21T01:40:20;7.13;;;3.60;;
8247;SDS011;4164;49.844;8.830;2023-03-21T01:42:48;4.83;;;3.00;;
8247;SDS011;4164;49.844;8.830;2023-03-21T01:48:17;5.93;;;3.87;;
8247;SDS011;4164;49.844;8.830;2023-03-21T01:50:44;6.97;;;3.73;;
8247;SDS011;4164;49.844;8.830;2023-03-21T01:53:10;6.10;;;3.60;;
8247;SDS011;4164;49.844;8.830;2023-03-21T01:55:36;5.57;;;3.43;;
8247;SDS011;4164;49.844;8.830;2023-03-21T01:58:02;7.33;;;3.80;;
8247;SDS011;4164;49.844;8.830;2023-03-21T02:00:30;5.60;;;3.43;;
8247;SDS011;4164;49.844;8.830;2023-03-21T02:02:57;8.83;;;4.23;;
8247;SDS011;4164;49.844;8.830;2023-03-21T02:07:57;6.13;;;3.37;;
8247;SDS011;4164;49.844;8.830;2023-03-21T02:10:24;7.70;;;3.77;;
8247;SDS011;4164;49.844;8.830;2023-03-21T02:12:51;7.27;;;3.70;;
8247;SDS011;4164;49.844;8.830;2023-03-21T02:15:19;5.40;;;3.47;;
8247;SDS011;4164;49.844;8.830;2023-03-21T02:18:01;6.97;;;3.87;;
8247;SDS011;4164;49.844;8.830;2023-03-21T02:28:43;6.17;;;3.50;;
8247;SDS011;4164;49.844;8.830;2023-03-21T02:34:25;5.87;;;3.70;;
8247;SDS011;4164;49.844;8.830;2023-03-21T02:37:21;6.40;;;4.13;;
8247;SDS011;4164;49.844;8.830;2023-03-21T02:39:55;6.07;;;3.40;;
8247;SDS011;4164;49.844;8.830;2023-03-21T02:45:18;6.87;;;3.83;;
8247;SDS011;4164;49.844;8.830;2023-03-21T02:47:49;6.13;;;3.50;;
8247;SDS011;4164;49.844;8.830;2023-03-21T02:50:32;6.50;;;3.77;;
8247;SDS011;4164;49.844;8.830;2023-03-21T02:53:02;6.33;;;3.67;;
8247;SDS011;4164;49.844;8.830;2023-03-21T02:55:30;7.30;;;3.87;;
8247;SDS011;4164;49.844;8.830;2023-03-21T02:57:57;4.93;;;3.53;;
8247;SDS011;4164;49.844;8.830;2023-03-21T03:00:25;9.93;;;4.33;;
8247;SDS011;4164;49.844;8.830;2023-03-21T03:02:53;8.23;;;3.97;;
8247;SDS011;4164;49.844;8.830;2023-03-21T03:05:20;8.90;;;5.27;;
8247;SDS011;4164;49.844;8.830;2023-03-21T03:07:55;8.00;;;4.03;;
8247;SDS011;4164;49.844;8.830;2023-03-21T03:21:26;9.67;;;4.67;;
8247;SDS011;4164;49.844;8.830;2023-03-21T03:24:21;8.47;;;4.30;;
8247;SDS011;4164;49.844;8.830;2023-03-21T03:29:39;9.37;;;4.00;;
8247;SDS011;4164;49.844;8.830;2023-03-21T03:32:10;17.53;;;7.00;;
8247;SDS011;4164;49.844;8.830;2023-03-21T03:34:43;8.03;;;3.93;;
8247;SDS011;4164;49.844;8.830;2023-03-21T03:37:15;6.97;;;3.90;;
8247;SDS011;4164;49.844;8.830;2023-03-21T03:39:50;8.83;;;4.00;;
8247;SDS011;4164;49.844;8.830;2023-03-21T03:42:33;6.20;;;4.30;;
8247;SDS011;4164;49.844;8.830;2023-03-21T03:45:01;9.00;;;4.03;;
8247;SDS011;4164;49.844;8.830;2023-03-21T03:47:41;7.60;;;3.70;;
8247;SDS011;4164;49.844;8.830;2023-03-21T03:52:51;8.13;;;4.60;;
8247;SDS011;4164;49.844;8.830;2023-03-21T03:55:19;9.80;;;5.37;;
8247;SDS011;4164;49.844;8.830;2023-03-21T03:57:47;10.57;;;5.47;;
8247;SDS011;4164;49.844;8.830;2023-03-21T04:00:13;8.00;;;4.20;;
8247;SDS011;4164;49.844;8.830;2023-03-21T04:02:41;5.67;;;4.40;;
8247;SDS011;4164;49.844;8.830;2023-03-21T04:05:07;8.83;;;4.57;;
8247;SDS011;4164;49.844;8.830;2023-03-21T04:07:33;7.17;;;4.20;;
8247;SDS011;4164;49.844;8.830;2023-03-21T04:09:58;5.00;;;4.07;;
8247;SDS011;4164;49.844;8.830;2023-03-21T04:12:24;5.50;;;3.80;;
8247;SDS011;4164;49.844;8.830;2023-03-21T04:14:50;9.63;;;4.10;;
8247;SDS011;4164;49.844;8.830;2023-03-21T04:17:16;6.87;;;3.70;;
8247;SDS011;4164;49.844;8.830;2023-03-21T04:19:42;6.00;;;4.27;;
8247;SDS011;4164;49.844;8.830;2023-03-21T04:22:09;7.80;;;4.10;;
8247;SDS011;4164;49.844;8.830;2023-03-21T04:24:36;10.87;;;4.67;;
8247;SDS011;4164;49.844;8.830;2023-03-21T04:27:02;7.77;;;4.43;;
8247;SDS011;4164;49.844;8.830;2023-03-21T04:29:29;11.17;;;4.57;;
8247;SDS011;4164;49.844;8.830;2023-03-21T04:31:56;12.37;;;4.93;;
8247;SDS011;4164;49.844;8.830;2023-03-21T04:34:22;10.83;;;4.13;;
8247;SDS011;4164;49.844;8.830;2023-03-21T04:36:52;7.87;;;4.23;;
8247;SDS011;4164;49.844;8.830;2023-03-21T04:39:19;7.53;;;4.23;;
8247;SDS011;4164;49.844;8.830;2023-03-21T04:41:45;11.03;;;5.47;;
8247;SDS011;4164;49.844;8.830;2023-03-21T04:44:11;7.37;;;5.70;;
8247;SDS011;4164;49.844;8.830;2023-03-21T04:46:38;10.53;;;5.00;;
8247;SDS011;4164;49.844;8.830;2023-03-21T04:49:04;8.40;;;5.03;;
8247;SDS011;4164;49.844;8.830;2023-03-21T04:51:31;8.33;;;5.00;;
8247;SDS011;4164;49.844;8.830;2023-03-21T04:53:56;10.10;;;4.80;;
8247;SDS011;4164;49.844;8.830;2023-03-21T04:56:25;10.87;;;4.90;;
8247;SDS011;4164;49.844;8.830;2023-03-21T04:59:00;8.27;;;4.10;;
8247;SDS011;4164;49.844;8.830;2023-03-21T05:01:29;7.73;;;4.63;;
8247;SDS011;4164;49.844;8.830;2023-03-21T05:03:58;9.70;;;4.87;;
8247;SDS011;4164;49.844;8.830;2023-03-21T05:06:25;9.33;;;4.87;;
8247;SDS011;4164;49.844;8.830;2023-03-21T05:08:53;6.13;;;4.23;;
8247;SDS011;4164;49.844;8.830;2023-03-21T05:11:26;9.60;;;4.77;;
8247;SDS011;4164;49.844;8.830;2023-03-21T05:13:52;15.20;;;6.90;;
8247;SDS011;4164;49.844;8.830;2023-03-21T05:16:17;12.00;;;6.43;;
8247;SDS011;4164;49.844;8.830;2023-03-21T05:18:43;12.37;;;6.83;;
8247;SDS011;4164;49.844;8.830;2023-03-21T05:21:08;13.23;;;7.17;;
8247;SDS011;4164;49.844;8.830;2023-03-21T05:23:35;11.00;;;6.57;;
8247;SDS011;4164;49.844;8.830;2023-03-21T05:26:06;10.03;;;6.17;;
8247;SDS011;4164;49.844;8.830;2023-03-21T05:28:33;7.70;;;4.90;;
8247;SDS011;4164;49.844;8.830;2023-03-21T05:31:01;10.07;;;6.30;;
8247;SDS011;4164;49.844;8.830;2023-03-21T05:33:30;15.03;;;7.17;;
8247;SDS011;4164;49.844;8.830;2023-03-21T05:35:55;28.77;;;11.43;;
8247;SDS011;4164;49.844;8.830;2023-03-21T05:38:21;25.33;;;10.03;;
8247;SDS011;4164;49.844;8.830;2023-03-21T05:40:50;9.80;;;5.13;;
8247;SDS011;4164;49.844;8.830;2023-03-21T05:43:16;9.33;;;4.90;;
8247;SDS011;4164;49.844;8.830;2023-03-21T05:45:41;10.90;;;5.30;;
8247;SDS011;4164;49.844;8.830;2023-03-21T05:48:07;12.13;;;5.57;;
8247;SDS011;4164;49.844;8.830;2023-03-21T05:50:33;13.67;;;5.07;;
8247;SDS011;4164;49.844;8.830;2023-03-21T05:52:58;9.23;;;5.03;;
8247;SDS011;4164;49.844;8.830;2023-03-21T05:55:24;6.53;;;4.60;;
8247;SDS011;4164;49.844;8.830;2023-03-21T05:57:49;9.17;;;5.20;;
8247;SDS011;4164;49.844;8.830;2023-03-21T06:00:15;8.17;;;4.87;;
8247;SDS011;4164;49.844;8.830;2023-03-21T06:02:42;14.17;;;4.80;;
8247;SDS011;4164;49.844;8.830;2023-03-21T06:05:08;9.50;;;5.10;;
8247;SDS011;4164;49.844;8.830;2023-03-21T06:07:34;8.83;;;5.60;;
8247;SDS011;4164;49.844;8.830;2023-03-21T06:10:01;10.07;;;5.43;;
8247;SDS011;4164;49.844;8.830;2023-03-21T06:12:28;15.57;;;5.37;;
8247;SDS011;4164;49.844;8.830;2023-03-21T06:14:53;10.03;;;5.30;;
8247;SDS011;4164;49.844;8.830;2023-03-21T06:17:19;12.10;;;5.43;;
8247;SDS011;4164;49.844;8.830;2023-03-21T06:19:45;11.60;;;5.10;;
8247;SDS011;4164;49.844;8.830;2023-03-21T06:22:10;10.70;;;5.10;;
8247;SDS011;4164;49.844;8.830;2023-03-21T06:24:36;8.47;;;4.80;;
8247;SDS011;4164;49.844;8.830;2023-03-21T06:27:02;9.73;;;4.70;;
8247;SDS011;4164;49.844;8.830;2023-03-21T06:29:28;7.97;;;4.73;;
8247;SDS011;4164;49.844;8.830;2023-03-21T06:31:53;9.20;;;4.60;;
8247;SDS011;4164;49.844;8.830;2023-03-21T06:34:19;7.50;;;4.37;;
8247;SDS011;4164;49.844;8.830;2023-03-21T06:36:45;9.23;;;4.33;;
8247;SDS011;4164;49.844;8.830;2023-03-21T06:39:11;7.90;;;5.00;;
8247;SDS011;4164;49.844;8.830;2023-03-21T06:41:37;7.27;;;4.53;;
8247;SDS011;4164;49.844;8.830;2023-03-21T06:44:03;8.67;;;4.80;;
8247;SDS011;4164;49.844;8.830;2023-03-21T06:46:32;7.97;;;4.40;;
8247;SDS011;4164;49.844;8.830;2023-03-21T06:48:57;7.30;;;4.37;;
8247;SDS011;4164;49.844;8.830;2023-03-21T06:51:23;9.20;;;3.87;;
8247;SDS011;4164;49.844;8.830;2023-03-21T06:53:48;8.10;;;4.00;;
8247;SDS011;4164;49.844;8.830;2023-03-21T06:56:14;8.40;;;4.27;;
8247;SDS011;4164;49.844;8.830;2023-03-21T06:58:40;9.53;;;3.97;;
8247;SDS011;4164;49.844;8.830;2023-03-21T07:01:06;6.00;;;3.93;;
8247;SDS011;4164;49.844;8.830;2023-03-21T07:03:32;9.20;;;3.93;;
8247;SDS011;4164;49.844;8.830;2023-03-21T07:05:58;6.83;;;4.13;;
8247;SDS011;4164;49.844;8.830;2023-03-21T07:08:32;7.40;;;4.17;;
8247;SDS011;4164;49.844;8.830;2023-03-21T07:10:58;6.97;;;3.67;;
8247;SDS011;4164;49.844;8.830;2023-03-21T07:13:23;10.93;;;4.10;;
8247;SDS011;4164;49.844;8.830;2023-03-21T07:15:49;8.33;;;3.83;;
8247;SDS011;4164;49.844;8.830;2023-03-21T07:18:16;6.70;;;3.77;;
8247;SDS011;4164;49.844;8.830;2023-03-21T07:20:44;10.13;;;4.10;;
8247;SDS011;4164;49.844;8.830;2023-03-21T07:23:12;7.40;;;4.07;;
8247;SDS011;4164;49.844;8.830;2023-03-21T07:25:37;5.50;;;4.23;;
8247;SDS011;4164;49.844;8.830;2023-03-21T07:28:03;6.63;;;3.67;;
8247;SDS011;4164;49.844;8.830;2023-03-21T07:30:33;6.90;;;3.73;;
8247;SDS011;4164;49.844;8.830;2023-03-21T07:32:59;9.17;;;3.87;;
8247;SDS011;4164;49.844;8.830;2023-03-21T07:35:24;10.43;;;3.53;;
8247;SDS011;4164;49.844;8.830;2023-03-21T07:37:50;15.60;;;3.70;;
8247;SDS011;4164;49.844;8.830;2023-03-21T07:40:16;6.23;;;3.90;;
8247;SDS011;4164;49.844;8.830;2023-03-21T07:42:42;4.53;;;3.20;;
8247;SDS011;4164;49.844;8.830;2023-03-21T07:45:08;10.00;;;3.57;;
8247;SDS011;4164;49.844;8.830;2023-03-21T07:47:34;11.37;;;3.97;;
8247;SDS011;4164;49.844;8.830;2023-03-21T07:50:00;7.77;;;3.67;;
8247;SDS011;4164;49.844;8.830;2023-03-21T07:52:28;7.87;;;3.83;;
8247;SDS011;4164;49.844;8.830;2023-03-21T07:54:54;8.93;;;3.67;;
8247;SDS011;4164;49.844;8.830;2023-03-21T07:57:20;6.23;;;3.93;;
8247;SDS011;4164;49.844;8.830;2023-03-21T07:59:45;8.67;;;3.47;;
8247;SDS011;4164;49.844;8.830;2023-03-21T08:02:15;5.63;;;3.17;;
8247;SDS011;4164;49.844;8.830;2023-03-21T08:04:41;6.63;;;3.23;;
8247;SDS011;4164;49.844;8.830;2023-03-21T08:07:07;7.83;;;3.50;;
8247;SDS011;4164;49.844;8.830;2023-03-21T08:09:33;8.90;;;3.70;;
8247;SDS011;4164;49.844;8.830;2023-03-21T08:11:58;6.13;;;3.40;;
8247;SDS011;4164;49.844;8.830;2023-03-21T08:14:24;11.43;;;3.97;;
8247;SDS011;4164;49.844;8.830;2023-03-21T08:16:50;9.83;;;3.23;;
8247;SDS011;4164;49.844;8.830;2023-03-21T08:19:15;10.37;;;3.43;;
8247;SDS011;4164;49.844;8.830;2023-03-21T08:21:44;11.03;;;3.83;;
8247;SDS011;4164;49.844;8.830;2023-03-21T08:24:10;9.17;;;3.47;;
8247;SDS011;4164;49.844;8.830;2023-03-21T08:26:35;11.37;;;3.63;;
8247;SDS011;4164;49.844;8.830;2023-03-21T08:29:02;11.33;;;3.07;;
8247;SDS011;4164;49.844;8.830;2023-03-21T08:31:27;9.20;;;3.03;;
8247;SDS011;4164;49.844;8.830;2023-03-21T08:33:53;8.00;;;3.37;;
8247;SDS011;4164;49.844;8.830;2023-03-21T08:36:20;10.40;;;3.90;;
8247;SDS011;4164;49.844;8.830;2023-03-21T08:38:49;4.67;;;3.17;;
8247;SDS011;4164;49.844;8.830;2023-03-21T08:41:20;7.60;;;2.90;;
8247;SDS011;4164;49.844;8.830;2023-03-21T08:43:46;7.33;;;3.23;;
8247;SDS011;4164;49.844;8.830;2023-03-21T08:46:12;7.77;;;3.07;;
8247;SDS011;4164;49.844;8.830;2023-03-21T08:48:38;4.47;;;2.50;;
8247;SDS011;4164;49.844;8.830;2023-03-21T08:51:04;5.23;;;2.77;;
8247;SDS011;4164;49.844;8.830;2023-03-21T08:53:30;5.63;;;3.17;;
8247;SDS011;4164;49.844;8.830;2023-03-21T08:55:56;5.40;;;3.30;;
8247;SDS011;4164;49.844;8.830;2023-03-21T08:58:21;6.60;;;3.43;;
8247;SDS011;4164;49.844;8.830;2023-03-21T09:00:47;15.37;;;4.40;;
8247;SDS011;4164;49.844;8.830;2023-03-21T09:03:13;12.20;;;3.70;;
8247;SDS011;4164;49.844;8.830;2023-03-21T09:05:38;9.43;;;3.40;;
8247;SDS011;4164;49.844;8.830;2023-03-21T09:08:04;8.70;;;3.60;;
8247;SDS011;4164;49.844;8.830;2023-03-21T09:10:30;10.67;;;3.63;;
8247;SDS011;4164;49.844;8.830;2023-03-21T09:12:56;7.13;;;3.60;;
8247;SDS011;4164;49.844;8.830;2023-03-21T09:15:23;6.87;;;3.17;;
8247;SDS011;4164;49.844;8.830;2023-03-21T09:17:50;11.27;;;3.73;;
8247;SDS011;4164;49.844;8.830;2023-03-21T09:20:21;7.07;;;3.20;;
8247;SDS011;4164;49.844;8.830;2023-03-21T09:22:54;5.77;;;3.03;;
8247;SDS011;4164;49.844;8.830;2023-03-21T09:25:21;17.80;;;3.80;;
8247;SDS011;4164;49.844;8.830;2023-03-21T09:27:47;9.83;;;3.43;;
8247;SDS011;4164;49.844;8.830;2023-03-21T09:30:17;5.40;;;2.80;;
8247;SDS011;4164;49.844;8.830;2023-03-21T09:32:45;8.77;;;3.00;;
8247;SDS011;4164;49.844;8.830;2023-03-21T09:35:14;10.73;;;3.30;;
8247;SDS011;4164;49.844;8.830;2023-03-21T09:37:43;5.90;;;3.50;;
8247;SDS011;4164;49.844;8.830;2023-03-21T09:40:18;7.17;;;3.00;;
8247;SDS011;4164;49.844;8.830;2023-03-21T09:48:44;15.23;;;4.10;;
8247;SDS011;4164;49.844;8.830;2023-03-21T09:51:12;7.30;;;3.33;;
8247;SDS011;4164;49.844;8.830;2023-03-21T09:53:42;21.00;;;4.10;;
8247;SDS011;4164;49.844;8.830;2023-03-21T09:56:12;13.23;;;3.73;;
8247;SDS011;4164;49.844;8.830;2023-03-21T09:58:48;26.70;;;5.27;;
8247;SDS011;4164;49.844;8.830;2023-03-21T10:01:19;10.80;;;3.37;;
8247;SDS011;4164;49.844;8.830;2023-03-21T10:03:59;8.70;;;3.27;;
8247;SDS011;4164;49.844;8.830;2023-03-21T10:06:27;6.50;;;3.33;;
8247;SDS011;4164;49.844;8.830;2023-03-21T10:09:04;42.17;;;6.97;;
8247;SDS011;4164;49.844;8.830;2023-03-21T10:11:43;11.80;;;3.30;;
8247;SDS011;4164;49.844;8.830;2023-03-21T10:14:19;6.77;;;3.10;;
8247;SDS011;4164;49.844;8.830;2023-03-21T10:16:54;7.27;;;3.40;;
8247;SDS011;4164;49.844;8.830;2023-03-21T10:19:23;5.43;;;3.17;;
8247;SDS011;4164;49.844;8.830;2023-03-21T10:21:51;10.20;;;4.07;;
8247;SDS011;4164;49.844;8.830;2023-03-21T10:24:21;9.60;;;3.87;;
8247;SDS011;4164;49.844;8.830;2023-03-21T10:26:49;10.47;;;4.00;;
8247;SDS011;4164;49.844;8.830;2023-03-21T10:29:16;14.33;;;4.03;;
8247;SDS011;4164;49.844;8.830;2023-03-21T10:31:47;9.07;;;4.43;;
8247;SDS011;4164;49.844;8.830;2023-03-21T10:34:15;5.13;;;3.63;;
8247;SDS011;4164;49.844;8.830;2023-03-21T10:36:44;12.50;;;4.77;;
8247;SDS011;4164;49.844;8.830;2023-03-21T10:39:17;9.93;;;4.43;;
8247;SDS011;4164;49.844;8.830;2023-03-21T10:41:58;13.63;;;4.97;;
8247;SDS011;4164;49.844;8.830;2023-03-21T10:44:31;8.93;;;5.30;;
8247;SDS011;4164;49.844;8.830;2023-03-21T10:47:02;11.80;;;5.23;;
8247;SDS011;4164;49.844;8.830;2023-03-21T10:49:29;9.63;;;4.90;;
8247;SDS011;4164;49.844;8.830;2023-03-21T10:51:56;9.70;;;4.30;;
8247;SDS011;4164;49.844;8.830;2023-03-21T10:54:25;9.07;;;4.67;;
8247;SDS011;4164;49.844;8.830;2023-03-21T10:56:55;8.27;;;4.47;;
8247;SDS011;4164;49.844;8.830;2023-03-21T10:59:25;9.83;;;4.50;;
8247;SDS011;4164;49.844;8.830;2023-03-21T11:01:54;8.13;;;4.20;;
8247;SDS011;4164;49.844;8.830;2023-03-21T11:04:22;14.77;;;4.73;;
8247;SDS011;4164;49.844;8.830;2023-03-21T11:07:02;9.57;;;4.60;;
8247;SDS011;4164;49.844;8.830;2023-03-21T11:09:46;12.97;;;4.53;;
8247;SDS011;4164;49.844;8.830;2023-03-21T11:12:14;13.60;;;5.23;;
8247;SDS011;4164;49.844;8.830;2023-03-21T11:14:43;7.43;;;4.20;;
8247;SDS011;4164;49.844;8.830;2023-03-21T11:22:25;8.03;;;5.07;;
8247;SDS011;4164;49.844;8.830;2023-03-21T11:25:00;11.53;;;4.27;;
8247;SDS011;4164;49.844;8.830;2023-03-21T11:27:28;9.63;;;4.90;;
8247;SDS011;4164;49.844;8.830;2023-03-21T11:29:56;7.20;;;4.27;;
8247;SDS011;4164;49.844;8.830;2023-03-21T11:35:01;6.33;;;3.47;;
8247;SDS011;4164;49.844;8.830;2023-03-21T11:37:45;6.80;;;3.80;;
8247;SDS011;4164;49.844;8.830;2023-03-21T11:40:28;10.83;;;5.07;;
8247;SDS011;4164;49.844;8.830;2023-03-21T11:42:56;8.70;;;4.90;;
8247;SDS011;4164;49.844;8.830;2023-03-21T11:45:55;78.37;;;10.33;;
8247;SDS011;4164;49.844;8.830;2023-03-21T11:48:29;20.00;;;6.73;;
8247;SDS011;4164;49.844;8.830;2023-03-21T11:56:37;11.47;;;5.60;;
8247;SDS011;4164;49.844;8.830;2023-03-21T11:59:25;10.67;;;4.77;;
8247;SDS011;4164;49.844;8.830;2023-03-21T12:07:20;9.57;;;5.63;;
8247;SDS011;4164;49.844;8.830;2023-03-21T12:13:12;10.73;;;6.03;;
8247;SDS011;4164;49.844;8.830;2023-03-21T12:18:53;12.63;;;6.10;;
8247;SDS011;4164;49.844;8.830;2023-03-21T12:21:58;7.67;;;4.90;;
8247;SDS011;4164;49.844;8.830;2023-03-21T12:27:29;9.03;;;4.90;;
8247;SDS011;4164;49.844;8.830;2023-03-21T12:30:15;8.97;;;4.83;;
8247;SDS011;4164;49.844;8.830;2023-03-21T12:33:06;8.73;;;4.67;;
8247;SDS011;4164;49.844;8.830;2023-03-21T12:39:08;7.63;;;4.23;;
8247;SDS011;4164;49.844;8.830;2023-03-21T12:41:42;9.90;;;5.27;;
8247;SDS011;4164;49.844;8.830;2023-03-21T12:44:21;10.37;;;5.43;;
8247;SDS011;4164;49.844;8.830;2023-03-21T12:46:57;9.27;;;5.00;;
8247;SDS011;4164;49.844;8.830;2023-03-21T12:52:06;10.73;;;5.50;;
8247;SDS011;4164;49.844;8.830;2023-03-21T12:54:37;14.23;;;5.07;;
8247;SDS011;4164;49.844;8.830;2023-03-21T12:57:16;9.40;;;5.33;;
8247;SDS011;4164;49.844;8.830;2023-03-21T13:08:12;12.30;;;5.90;;
8247;SDS011;4164;49.844;8.830;2023-03-21T13:10:45;6.57;;;4.87;;
8247;SDS011;4164;49.844;8.830;2023-03-21T13:13:14;8.30;;;5.10;;
8247;SDS011;4164;49.844;8.830;2023-03-21T13:21:14;9.73;;;4.50;;
8247;SDS011;4164;49.844;8.830;2023-03-21T13:24:02;11.30;;;4.83;;
8247;SDS011;4164;49.844;8.830;2023-03-21T13:26:47;7.57;;;4.87;;
8247;SDS011;4164;49.844;8.830;2023-03-21T13:29:22;5.93;;;3.93;;
8247;SDS011;4164;49.844;8.830;2023-03-21T13:31:51;7.93;;;4.50;;
8247;SDS011;4164;49.844;8.830;2023-03-21T13:34:22;8.70;;;4.13;;
8247;SDS011;4164;49.844;8.830;2023-03-21T13:36:49;6.80;;;3.97;;
8247;SDS011;4164;49.844;8.830;2023-03-21T13:39:20;5.60;;;3.83;;
8247;SDS011;4164;49.844;8.830;2023-03-21T13:41:50;5.33;;;3.33;;
8247;SDS011;4164;49.844;8.830;2023-03-21T13:44:22;6.43;;;3.80;;
8247;SDS011;4164;49.844;8.830;2023-03-21T13:47:03;11.73;;;3.67;;
8247;SDS011;4164;49.844;8.830;2023-03-21T13:49:31;7.13;;;3.23;;
8247;SDS011;4164;49.844;8.830;2023-03-21T13:52:00;5.93;;;3.87;;
8247;SDS011;4164;49.844;8.830;2023-03-21T13:54:52;5.40;;;3.70;;
8247;SDS011;4164;49.844;8.830;2023-03-21T13:57:34;7.40;;;3.70;;
8247;SDS011;4164;49.844;8.830;2023-03-21T14:05:40;9.27;;;4.37;;
8247;SDS011;4164;49.844;8.830;2023-03-21T14:08:07;9.43;;;4.77;;
8247;SDS011;4164;49.844;8.830;2023-03-21T14:10:44;6.77;;;4.37;;
8247;SDS011;4164;49.844;8.830;2023-03-21T14:13:17;6.93;;;4.03;;
8247;SDS011;4164;49.844;8.830;2023-03-21T14:15:47;8.23;;;4.47;;
8247;SDS011;4164;49.844;8.830;2023-03-21T14:18:18;7.43;;;4.37;;
8247;SDS011;4164;49.844;8.830;2023-03-21T14:20:50;9.83;;;5.57;;
8247;SDS011;4164;49.844;8.830;2023-03-21T14:23:17;8.77;;;4.73;;
8247;SDS011;4164;49.844;8.830;2023-03-21T14:25:44;12.10;;;5.70;;
8247;SDS011;4164;49.844;8.830;2023-03-21T14:28:13;8.20;;;5.67;;
8247;SDS011;4164;49.844;8.830;2023-03-21T14:30:42;12.37;;;5.60;;
8247;SDS011;4164;49.844;8.830;2023-03-21T14:33:16;9.40;;;5.73;;
8247;SDS011;4164;49.844;8.830;2023-03-21T14:36:03;9.93;;;5.37;;
8247;SDS011;4164;49.844;8.830;2023-03-21T14:38:39;7.67;;;4.90;;
8247;SDS011;4164;49.844;8.830;2023-03-21T14:41:05;7.57;;;5.30;;
8247;SDS011;4164;49.844;8.830;2023-03-21T14:43:56;5.97;;;5.07;;
8247;SDS011;4164;49.844;8.830;2023-03-21T14:46:26;8.60;;;6.07;;
8247;SDS011;4164;49.844;8.830;2023-03-21T14:48:51;9.70;;;5.77;;
8247;SDS011;4164;49.844;8.830;2023-03-21T14:51:17;7.60;;;5.73;;
8247;SDS011;4164;49.844;8.830;2023-03-21T14:53:43;9.57;;;6.60;;
8247;SDS011;4164;49.844;8.830;2023-03-21T14:56:21;7.13;;;5.50;;
8247;SDS011;4164;49.844;8.830;2023-03-21T14:58:49;13.63;;;5.90;;
8247;SDS011;4164;49.844;8.830;2023-03-21T15:01:16;11.77;;;6.40;;
8247;SDS011;4164;49.844;8.830;2023-03-21T15:04:06;9.93;;;7.10;;
8247;SDS011;4164;49.844;8.830;2023-03-21T15:06:32;15.27;;;6.40;;
8247;SDS011;4164;49.844;8.830;2023-03-21T15:09:03;10.93;;;7.00;;
8247;SDS011;4164;49.844;8.830;2023-03-21T15:14:04;12.80;;;6.73;;
8247;SDS011;4164;49.844;8.830;2023-03-21T15:16:31;10.83;;;6.87;;
8247;SDS011;4164;49.844;8.830;2023-03-21T15:18:58;9.20;;;6.50;;
8247;SDS011;4164;49.844;8.830;2023-03-21T15:21:26;13.10;;;7.00;;
8247;SDS011;4164;49.844;8.830;2023-03-21T15:23:57;9.10;;;6.40;;
8247;SDS011;4164;49.844;8.830;2023-03-21T15:26:27;10.20;;;6.10;;
8247;SDS011;4164;49.844;8.830;2023-03-21T15:28:57;9.17;;;6.10;;
8247;SDS011;4164;49.844;8.830;2023-03-21T15:31:27;7.70;;;6.27;;
8247;SDS011;4164;49.844;8.830;2023-03-21T15:33:55;11.60;;;6.90;;
8247;SDS011;4164;49.844;8.830;2023-03-21T15:36:22;7.97;;;5.63;;
8247;SDS011;4164;49.844;8.830;2023-03-21T15:38:51;11.57;;;6.17;;
8247;SDS011;4164;49.844;8.830;2023-03-21T15:43:44;10.33;;;6.53;;
8247;SDS011;4164;49.844;8.830;2023-03-21T15:46:30;10.50;;;5.97;;
8247;SDS011;4164;49.844;8.830;2023-03-21T15:49:06;7.33;;;5.93;;
8247;SDS011;4164;49.844;8.830;2023-03-21T15:51:32;10.70;;;6.73;;
8247;SDS011;4164;49.844;8.830;2023-03-21T15:53:58;13.03;;;6.10;;
8247;SDS011;4164;49.844;8.830;2023-03-21T15:56:26;8.67;;;6.43;;
8247;SDS011;4164;49.844;8.830;2023-03-21T15:58:58;10.00;;;6.60;;
8247;SDS011;4164;49.844;8.830;2023-03-21T16:01:26;11.87;;;7.10;;
8247;SDS011;4164;49.844;8.830;2023-03-21T16:03:57;8.97;;;6.40;;
8247;SDS011;4164;49.844;8.830;2023-03-21T16:06:30;10.47;;;6.80;;
8247;SDS011;4164;49.844;8.830;2023-03-21T16:09:16;9.87;;;6.70;;
8247;SDS011;4164;49.844;8.830;2023-03-21T16:11:48;9.27;;;6.03;;
8247;SDS011;4164;49.844;8.830;2023-03-21T16:14:19;10.40;;;6.83;;
8247;SDS011;4164;49.844;8.830;2023-03-21T16:16:46;9.67;;;6.53;;
8247;SDS011;4164;49.844;8.830;2023-03-21T16:19:12;11.47;;;6.77;;
8247;SDS011;4164;49.844;8.830;2023-03-21T16:21:39;12.37;;;6.60;;
8247;SDS011;4164;49.844;8.830;2023-03-21T16:24:05;13.37;;;6.93;;
8247;SDS011;4164;49.844;8.830;2023-03-21T16:26:35;13.27;;;7.70;;
8247;SDS011;4164;49.844;8.830;2023-03-21T16:29:02;10.13;;;7.33;;
8247;SDS011;4164;49.844;8.830;2023-03-21T16:31:29;11.60;;;7.17;;
8247;SDS011;4164;49.844;8.830;2023-03-21T16:33:56;12.47;;;7.47;;
8247;SDS011;4164;49.844;8.830;2023-03-21T16:36:24;8.10;;;6.80;;
8247;SDS011;4164;49.844;8.830;2023-03-21T16:38:52;10.80;;;6.80;;
8247;SDS011;4164;49.844;8.830;2023-03-21T16:41:19;13.70;;;7.00;;
8247;SDS011;4164;49.844;8.830;2023-03-21T16:43:49;12.40;;;7.90;;
8247;SDS011;4164;49.844;8.830;2023-03-21T16:46:17;19.27;;;7.97;;
8247;SDS011;4164;49.844;8.830;2023-03-21T16:48:47;10.93;;;7.17;;
8247;SDS011;4164;49.844;8.830;2023-03-21T16:51:17;11.27;;;6.63;;
8247;SDS011;4164;49.844;8.830;2023-03-21T16:53:45;16.10;;;10.17;;
8247;SDS011;4164;49.844;8.830;2023-03-21T16:56:16;16.20;;;8.27;;
8247;SDS011;4164;49.844;8.830;2023-03-21T16:58:45;13.40;;;7.90;;
8247;SDS011;4164;49.844;8.830;2023-03-21T17:01:14;11.37;;;7.90;;
8247;SDS011;4164;49.844;8.830;2023-03-21T17:03:46;16.30;;;11.67;;
8247;SDS011;4164;49.844;8.830;2023-03-21T17:06:13;18.57;;;11.83;;